Time;durP1;ratioP1;P1;durP2;ratioP2;P2;SDS_P1;SDS_P2;PMS_P1;PMS_P2;Temp;Humidity;BMP_temperature;BMP_pressure;BME280_temperature;BME280_humidity;BME280_pressure;Samples;Min_cycle;Max_cycle;Signal;HPM_P1;HPM_P2
2023/03/27 00:01:35;;;;;;;0.63;0.47;;;;;;;10.68;100.00;95047.97;5010903;28;20084;-49
2023/03/27 00:04:04;;;;;;;0.22;0.22;;;;;;;10.69;100.00;95040.88;5010707;28;20092;-58
2023/03/27 00:06:33;;;;;;;1.52;0.40;;;;;;;10.69;100.00;95039.06;5008351;28;20085;-48
2023/03/27 00:09:06;;;;;;;5.88;0.68;;;;;;;10.66;100.00;95039.41;5013108;28;20093;-49
2023/03/27 00:11:34;;;;;;;0.98;0.60;;;;;;;10.53;100.00;95046.28;5021680;28;20073;-52
2023/03/27 00:14:03;;;;;;;1.00;0.50;;;;;;;10.76;100.00;95048.88;5005202;28;20093;-54
2023/03/27 00:16:31;;;;;;;2.28;0.50;;;;;;;10.48;100.00;95052.09;5011953;28;20590;-53
2023/03/27 00:19:00;;;;;;;0.40;0.40;;;;;;;10.62;100.00;95051.31;5011497;28;20082;-54
2023/03/27 00:21:28;;;;;;;0.40;0.40;;;;;;;10.27;100.00;95054.59;5010289;28;20074;-54
2023/03/27 00:23:59;;;;;;;0.43;0.43;;;;;;;10.66;100.00;95057.84;5010758;28;20100;-51
2023/03/27 00:26:29;;;;;;;0.47;0.30;;;;;;;10.53;100.00;95052.41;5007348;28;20093;-53
2023/03/27 00:28:57;;;;;;;0.55;0.52;;;;;;;10.82;100.00;95053.44;5011064;28;20507;-51
2023/03/27 00:31:26;;;;;;;1.92;0.68;;;;;;;11.10;100.00;95043.06;5008210;28;20085;-54
2023/03/27 00:33:54;;;;;;;1.17;0.60;;;;;;;10.82;100.00;95046.34;5010888;28;20458;-50
2023/03/27 00:36:23;;;;;;;1.13;0.70;;;;;;;10.79;100.00;95051.97;5010494;28;20085;-51
2023/03/27 00:38:52;;;;;;;1.10;0.60;;;;;;;10.96;100.00;95050.00;5011895;28;20091;-54
2023/03/27 00:41:20;;;;;;;1.95;0.50;;;;;;;11.27;100.00;95052.44;5009385;28;20096;-50
2023/03/27 00:43:55;;;;;;;1.08;0.60;;;;;;;11.27;100.00;95055.06;5017356;28;20085;-52
2023/03/27 00:46:31;;;;;;;2.17;0.60;;;;;;;11.32;100.00;95046.59;5013043;28;20092;-52
2023/03/27 00:49:02;;;;;;;1.85;0.40;;;;;;;11.24;100.00;95049.34;5008837;28;20082;-52
2023/03/27 00:51:31;;;;;;;0.47;0.47;;;;;;;11.31;100.00;95048.41;5009234;28;20084;-54
2023/03/27 00:54:00;;;;;;;0.70;0.40;;;;;;;11.48;100.00;95054.31;5014110;28;20625;-52
2023/03/27 00:56:29;;;;;;;0.52;0.43;;;;;;;11.13;100.00;95053.25;5007255;28;20090;-52
2023/03/27 00:59:01;;;;;;;0.47;0.40;;;;;;;11.20;100.00;95056.81;5007876;28;20104;-54
2023/03/27 01:01:30;;;;;;;0.52;0.40;;;;;;;11.34;100.00;95061.25;5014060;28;20092;-53
2023/03/27 01:04:00;;;;;;;1.90;0.40;;;;;;;11.31;100.00;95055.53;5005902;28;20084;-51
2023/03/27 01:06:30;;;;;;;0.70;0.35;;;;;;;11.17;100.00;95047.44;5008287;28;20088;-58
2023/03/27 01:08:58;;;;;;;2.05;0.50;;;;;;;11.05;100.00;95046.28;5010140;28;20081;-52
2023/03/27 01:11:36;;;;;;;1.50;0.50;;;;;;;11.05;100.00;95048.91;5009226;28;20085;-51
2023/03/27 01:14:12;;;;;;;0.32;0.32;;;;;;;11.08;100.00;95040.63;5008289;28;20444;-57
2023/03/27 01:16:48;;;;;;;0.63;0.47;;;;;;;11.11;100.00;95037.63;5006104;28;20503;-48
2023/03/27 01:19:41;;;;;;;1.55;0.50;;;;;;;11.07;100.00;95033.69;5009769;28;20096;-50
2023/03/27 01:22:24;;;;;;;1.65;0.50;;;;;;;11.40;100.00;95042.03;5004515;28;20085;-51
2023/03/27 01:25:14;;;;;;;0.30;0.30;;;;;;;10.85;100.00;95048.63;5005971;28;20085;-51
2023/03/27 01:28:14;;;;;;;4.05;0.40;;;;;;;10.83;100.00;95033.97;4995063;28;20084;-52
2023/03/27 01:30:47;;;;;;;1.02;0.52;;;;;;;10.57;100.00;95051.03;5009054;28;20072;-52
2023/03/27 01:33:35;;;;;;;1.05;0.40;;;;;;;10.81;100.00;95044.72;5009829;28;20081;-55
2023/03/27 01:36:21;;;;;;;0.40;0.40;;;;;;;11.15;100.00;95043.34;5014547;28;20085;-52
2023/03/27 01:39:20;;;;;;;0.70;0.45;;;;;;;10.93;100.00;95045.88;5005014;28;20089;-53
2023/03/27 01:41:53;;;;;;;0.30;0.30;;;;;;;10.88;100.00;95044.81;5010720;28;20532;-51
2023/03/27 01:44:29;;;;;;;0.95;0.40;;;;;;;10.72;100.00;95044.97;5005647;28;20095;-56
2023/03/27 01:47:17;;;;;;;0.50;0.20;;;;;;;11.00;100.00;95045.97;5011503;28;20081;-48
2023/03/27 01:49:51;;;;;;;0.45;0.40;;;;;;;10.66;100.00;95049.13;5008313;28;20074;-52
2023/03/27 01:52:22;;;;;;;0.80;0.50;;;;;;;10.80;100.00;95053.59;5008795;28;20092;-57
2023/03/27 01:54:57;;;;;;;0.50;0.38;;;;;;;10.53;100.00;95065.59;5004918;28;20097;-48
2023/03/27 01:57:27;;;;;;;0.40;0.40;;;;;;;10.68;100.00;95070.88;5004412;28;20081;-57
2023/03/27 02:00:00;;;;;;;0.55;0.40;;;;;;;10.87;100.00;95069.53;5014161;28;20082;-50
2023/03/27 02:02:47;;;;;;;;;;;;;;;10.52;100.00;95065.75;5004045;28;20097;-50
2023/03/27 02:05:19;;;;;;;0.50;0.50;;;;;;;10.59;100.00;95066.66;5012579;28;19964;-50
2023/03/27 02:07:52;;;;;;;2.33;0.98;;;;;;;10.73;100.00;95079.06;5006358;28;20089;-54
2023/03/27 02:10:25;;;;;;;0.52;0.40;;;;;;;10.59;100.00;95075.38;5012098;28;20090;-56
2023/03/27 02:12:57;;;;;;;0.73;0.60;;;;;;;10.36;100.00;95070.16;5014526;28;20092;-51
2023/03/27 02:15:28;;;;;;;0.40;0.40;;;;;;;10.51;100.00;95062.28;5006006;28;20073;-55
2023/03/27 02:18:03;;;;;;;1.00;0.60;;;;;;;10.66;100.00;95057.84;5006615;28;20093;-55
2023/03/27 02:20:33;;;;;;;1.48;0.70;;;;;;;10.53;100.00;95059.47;5010750;28;20616;-52
2023/03/27 02:23:01;;;;;;;0.40;0.40;;;;;;;10.41;100.00;95056.47;5002988;28;20085;-55
2023/03/27 02:25:33;;;;;;;1.75;0.50;;;;;;;10.68;100.00;95061.16;5005902;28;20085;-51
2023/03/27 02:28:12;;;;;;;0.50;0.50;;;;;;;10.49;100.00;95076.66;5016189;28;20487;-54
2023/03/27 02:30:46;;;;;;;0.95;0.73;;;;;;;10.58;100.00;95081.66;5012500;28;20105;-52
2023/03/27 02:33:37;;;;;;;0.50;0.47;;;;;;;10.74;100.00;95082.53;5003145;28;20077;-55
2023/03/27 02:36:12;;;;;;;1.20;0.73;;;;;;;10.41;100.00;95077.53;5001967;28;20095;-55
2023/03/27 02:38:43;;;;;;;0.85;0.70;;;;;;;10.56;100.00;95083.66;4999581;28;20554;-50
2023/03/27 02:41:19;;;;;;;0.77;0.60;;;;;;;10.14;100.00;95087.59;4998955;28;20534;-57
2023/03/27 02:43:56;;;;;;;0.52;0.50;;;;;;;10.20;100.00;95086.06;5001735;28;20105;-54
2023/03/27 02:46:27;;;;;;;0.77;0.60;;;;;;;10.17;100.00;95087.22;5000109;28;20089;-51
2023/03/27 02:48:58;;;;;;;0.80;0.77;;;;;;;10.44;100.00;95079.81;5003021;28;20530;-55
2023/03/27 02:51:29;;;;;;;0.60;0.50;;;;;;;10.38;100.00;95093.69;5000018;28;20097;-51
2023/03/27 02:54:00;;;;;;;3.58;1.10;;;;;;;10.58;100.00;95097.47;5001573;28;20077;-51
2023/03/27 02:56:31;;;;;;;0.82;0.60;;;;;;;10.15;100.00;95107.69;4998255;28;20077;-56
2023/03/27 02:59:02;;;;;;;0.73;0.70;;;;;;;10.43;100.00;95109.81;5004542;28;20147;-52
2023/03/27 03:01:32;;;;;;;1.00;0.70;;;;;;;10.21;100.00;95104.31;4998657;28;20082;-59
2023/03/27 03:04:04;;;;;;;0.73;0.60;;;;;;;10.21;100.00;95112.22;5000111;28;20089;-55
2023/03/27 03:06:32;;;;;;;0.75;0.70;;;;;;;10.16;100.00;95111.13;5000102;28;20092;-56
2023/03/27 03:09:04;;;;;;;1.23;0.70;;;;;;;10.34;100.00;95114.31;5002935;28;20116;-54
2023/03/27 03:11:36;;;;;;;0.90;0.80;;;;;;;9.95;100.00;95124.94;4999160;28;20479;-55
2023/03/27 03:14:04;;;;;;;0.60;0.60;;;;;;;10.33;100.00;95122.41;5005880;28;20069;-53
2023/03/27 03:16:33;;;;;;;0.75;0.73;;;;;;;10.43;100.00;95110.63;4999372;28;20082;-56
2023/03/27 03:19:01;;;;;;;1.75;0.90;;;;;;;10.58;100.00;95121.22;5001078;28;20192;-51
2023/03/27 03:21:30;;;;;;;1.00;0.80;;;;;;;10.54;100.00;95127.03;4998343;28;20789;-53
2023/03/27 03:23:59;;;;;;;1.20;0.85;;;;;;;10.45;100.00;95129.69;5002624;28;20069;-51
2023/03/27 03:26:28;;;;;;;0.95;0.77;;;;;;;10.62;100.00;95129.56;4998117;28;20094;-55
2023/03/27 03:28:59;;;;;;;3.30;0.87;;;;;;;10.49;100.00;95132.81;5000296;28;20089;-56
2023/03/27 03:31:42;;;;;;;2.60;0.88;;;;;;;10.30;100.00;95120.94;4995087;28;20579;-52
2023/03/27 03:34:12;;;;;;;1.48;0.90;;;;;;;10.51;100.00;95130.00;4998253;28;20081;-59
2023/03/27 03:36:41;;;;;;;1.88;1.33;;;;;;;10.51;100.00;95133.47;5000123;28;20085;-52
2023/03/27 03:39:11;;;;;;;1.80;0.90;;;;;;;10.62;100.00;95127.75;4960152;28;1172396;-58
2023/03/27 03:41:39;;;;;;;1.95;0.98;;;;;;;10.53;100.00;95146.44;4999803;28;20458;-55
2023/03/27 03:44:09;;;;;;;1.20;1.05;;;;;;;10.71;100.00;95141.72;4999465;28;20085;-59
2023/03/27 03:46:38;;;;;;;0.70;0.70;;;;;;;10.41;100.00;95140.78;5006235;28;20102;-55
2023/03/27 03:49:07;;;;;;;1.23;0.95;;;;;;;10.08;100.00;95140.13;5008910;28;20095;-56
2023/03/27 03:51:35;;;;;;;1.13;1.00;;;;;;;10.16;100.00;95148.00;5010049;28;20076;-58
2023/03/27 03:54:05;;;;;;;1.60;1.02;;;;;;;10.25;100.00;95159.28;5007524;28;20082;-50
2023/03/27 03:56:36;;;;;;;2.63;1.45;;;;;;;10.17;100.00;95158.34;5006303;28;20077;-54
2023/03/27 03:59:04;;;;;;;2.22;1.13;;;;;;;10.01;100.00;95168.16;5003577;28;20554;-56
2023/03/27 04:01:34;;;;;;;4.05;0.70;;;;;;;10.05;100.00;95167.66;5005387;28;20054;-54
2023/03/27 04:04:03;;;;;;;1.60;1.08;;;;;;;10.47;100.00;95155.91;5003679;28;20705;-53
2023/03/27 04:06:36;;;;;;;1.35;1.10;;;;;;;10.41;100.00;95159.22;5009857;28;20698;-51
2023/03/27 04:09:05;;;;;;;0.70;0.70;;;;;;;10.06;100.00;95166.66;5002991;28;20315;-53
2023/03/27 04:11:33;;;;;;;0.85;0.75;;;;;;;10.12;100.00;95158.06;5005178;28;20107;-56
2023/03/27 04:14:01;;;;;;;2.83;1.17;;;;;;;9.99;100.00;95170.97;5009437;28;20565;-52
2023/03/27 04:16:29;;;;;;;4.07;1.25;;;;;;;10.16;100.00;95179.63;5003157;28;20078;-50
2023/03/27 04:18:59;;;;;;;1.98;0.77;;;;;;;9.83;100.00;95182.41;5005124;28;20085;-51
2023/03/27 04:21:28;;;;;;;4.63;0.95;;;;;;;10.10;100.00;95172.41;5004156;28;20085;-49
2023/03/27 04:24:01;;;;;;;0.90;0.80;;;;;;;10.09;100.00;95194.47;4999248;28;20175;-56
2023/03/27 04:26:30;;;;;;;5.13;4.32;;;;;;;9.98;100.00;95190.41;4996270;28;20085;-56
2023/03/27 04:28:58;;;;;;;1.80;1.33;;;;;;;10.12;100.00;95196.75;5002765;28;20530;-53
2023/03/27 04:31:27;;;;;;;1.45;1.13;;;;;;;10.50;100.00;95200.34;5008223;28;20096;-53
2023/03/27 04:33:55;;;;;;;1.23;1.00;;;;;;;9.93;100.00;95205.91;5011454;28;20075;-51
2023/03/27 04:36:26;;;;;;;1.77;0.77;;;;;;;9.58;100.00;95212.44;5013694;28;20597;-56
2023/03/27 04:38:56;;;;;;;1.23;1.00;;;;;;;9.72;100.00;95206.47;5011150;28;20085;-54
2023/03/27 04:41:28;;;;;;;0.95;0.88;;;;;;;9.47;100.00;95224.16;5011848;28;20077;-55
2023/03/27 04:43:56;;;;;;;1.05;0.90;;;;;;;10.40;100.00;95232.19;5011580;28;20077;-55
2023/03/27 04:46:25;;;;;;;1.45;1.00;;;;;;;9.37;100.00;95249.81;5009613;28;20081;-54
2023/03/27 04:48:53;;;;;;;1.58;0.57;;;;;;;9.49;100.00;95251.09;5014485;28;21718;-54
2023/03/27 04:51:21;;;;;;;0.70;0.70;;;;;;;9.61;100.00;95252.41;5012262;28;20100;-56
2023/03/27 04:53:51;;;;;;;1.13;0.60;;;;;;;9.07;100.00;95281.06;5017066;28;20073;-49
2023/03/27 04:56:21;;;;;;;1.00;0.60;;;;;;;9.15;100.00;95309.16;5010342;28;20086;-54
2023/03/27 04:58:49;;;;;;;0.50;0.50;;;;;;;9.26;100.00;95299.16;5010811;28;20085;-52
2023/03/27 05:01:18;;;;;;;0.50;0.50;;;;;;;11.27;100.00;95291.75;5010871;28;20100;-58
2023/03/27 05:03:47;;;;;;;0.50;0.50;;;;;;;9.22;100.00;95313.63;5010420;28;20184;-52
2023/03/27 05:06:16;;;;;;;0.50;0.50;;;;;;;8.66;100.00;95341.47;5006855;28;20085;-50
2023/03/27 05:08:44;;;;;;;0.40;0.40;;;;;;;8.67;100.00;95330.00;5010079;28;21056;-51
2023/03/27 05:11:14;;;;;;;0.57;0.40;;;;;;;8.80;100.00;95338.22;5010899;28;20119;-51
2023/03/27 05:13:42;;;;;;;0.53;0.53;;;;;;;8.86;100.00;95343.81;5012283;28;20455;-53
2023/03/27 05:16:10;;;;;;;0.43;0.40;;;;;;;8.82;100.00;95347.75;5009879;28;20089;-51
2023/03/27 05:18:40;;;;;;;0.50;0.50;;;;;;;24.24;100.00;95350.03;5010217;28;20081;-54
2023/03/27 05:21:09;;;;;;;0.60;0.60;;;;;;;12.77;100.00;95366.50;5015772;28;20089;-59
2023/03/27 05:23:38;;;;;;;0.50;0.50;;;;;;;19.19;100.00;95341.88;5012401;28;20096;-52
2023/03/27 05:26:06;;;;;;;0.95;0.60;;;;;;;11.81;100.00;95384.03;5009962;28;20086;-57
2023/03/27 05:28:38;;;;;;;1.30;0.70;;;;;;;11.86;100.00;95405.47;5006797;28;20085;-51
2023/03/27 05:31:09;;;;;;;1.27;1.00;;;;;;;10.99;100.00;95410.16;5008562;28;20097;-56
2023/03/27 05:33:38;;;;;;;1.50;0.98;;;;;;;10.93;100.00;95423.03;5009361;28;20080;-56
2023/03/27 05:36:08;;;;;;;1.05;0.95;;;;;;;11.36;100.00;95430.59;5005979;28;20545;-57
2023/03/27 05:38:38;;;;;;;1.20;0.90;;;;;;;11.21;100.00;95434.94;5015018;28;20088;-56
2023/03/27 05:41:07;;;;;;;1.30;0.90;;;;;;;11.16;100.00;95449.47;5006527;28;20081;-57
2023/03/27 05:43:37;;;;;;;0.98;0.80;;;;;;;15.20;100.00;95444.78;5009467;28;20074;-54
2023/03/27 05:46:06;;;;;;;1.17;0.90;;;;;;;11.50;100.00;95466.78;5010969;28;20550;-56
2023/03/27 05:48:34;;;;;;;0.80;0.70;;;;;;;16.70;100.00;95440.06;5010935;28;20077;-54
2023/03/27 05:51:04;;;;;;;0.50;0.50;;;;;;;12.39;100.00;95476.81;5011180;28;20084;-53
2023/03/27 05:53:34;;;;;;;0.90;0.65;;;;;;;12.46;100.00;95478.59;5012478;28;20077;-51
2023/03/27 05:56:02;;;;;;;1.02;0.70;;;;;;;12.76;100.00;95497.13;5009354;28;20089;-50
2023/03/27 05:58:30;;;;;;;0.80;0.80;;;;;;;14.23;100.00;95493.34;5014410;28;20065;-56
2023/03/27 06:01:01;;;;;;;0.85;0.73;;;;;;;12.04;100.00;95514.31;5012024;28;20086;-58
2023/03/27 06:03:30;;;;;;;0.57;0.57;;;;;;;13.56;100.00;95522.00;5015112;28;20088;-59
2023/03/27 06:05:59;;;;;;;0.50;0.43;;;;;;;13.20;100.00;95531.53;5009934;28;20079;-57
2023/03/27 06:08:28;;;;;;;0.65;0.52;;;;;;;12.75;100.00;95537.81;5010924;28;20081;-58
2023/03/27 06:10:57;;;;;;;0.70;0.50;;;;;;;11.94;100.00;95547.22;5017603;28;20089;-57
2023/03/27 06:13:25;;;;;;;0.73;0.70;;;;;;;12.14;100.00;95555.53;5013563;28;20073;-55
2023/03/27 06:15:54;;;;;;;0.98;0.80;;;;;;;11.78;100.00;95559.53;5014028;28;20088;-56
2023/03/27 06:18:26;;;;;;;0.68;0.65;;;;;;;12.07;100.00;95564.16;5010869;28;20082;-55
2023/03/27 06:20:54;;;;;;;0.70;0.60;;;;;;;11.32;100.00;95583.19;5010640;28;20085;-55
2023/03/27 06:23:22;;;;;;;0.95;0.85;;;;;;;11.47;100.00;95590.38;5006590;28;20081;-57
2023/03/27 06:25:51;;;;;;;2.47;0.90;;;;;;;11.79;100.00;95597.31;5012212;28;20486;-51
2023/03/27 06:28:20;;;;;;;0.93;0.70;;;;;;;20.36;100.00;95568.94;5008521;28;20084;-57
2023/03/27 06:30:49;;;;;;;0.93;0.88;;;;;;;-146.19;100.00;58918.88;5015167;28;20089;-55
2023/03/27 06:33:18;;;;;;;1.25;1.10;;;;;;;-146.19;100.00;58918.88;5019883;28;20077;-56
2023/03/27 06:35:47;;;;;;;1.63;1.15;;;;;;;-146.19;100.00;58918.88;5013432;28;20093;-52
2023/03/27 06:38:21;;;;;;;3.72;2.30;;;;;;;-146.19;100.00;58918.88;5013317;28;20084;-54
2023/03/27 06:40:50;;;;;;;1.80;1.27;;;;;;;-146.19;100.00;58918.88;5012209;28;20066;-51
2023/03/27 06:43:21;;;;;;;1.63;1.20;;;;;;;-146.19;100.00;58918.88;5017415;28;20085;-54
2023/03/27 06:45:50;;;;;;;1.52;1.17;;;;;;;-146.19;100.00;58918.88;5011222;28;20081;-52
2023/03/27 06:48:19;;;;;;;1.30;1.00;;;;;;;-146.19;100.00;58918.88;5019929;28;20081;-55
2023/03/27 06:50:52;;;;;;;5.72;1.50;;;;;;;-146.19;100.00;58918.88;5015657;28;20470;-55
2023/03/27 06:53:21;;;;;;;1.52;1.08;;;;;;;-146.19;100.00;58918.88;5017855;28;20705;-53
2023/03/27 06:55:52;;;;;;;1.70;1.05;;;;;;;-146.19;100.00;58918.88;5014671;28;20068;-52
2023/03/27 06:58:21;;;;;;;1.58;0.85;;;;;;;-146.19;100.00;58918.88;5011508;28;20092;-49
2023/03/27 07:00:49;;;;;;;1.25;0.85;;;;;;;-146.19;100.00;58918.88;5014073;28;20084;-51
2023/03/27 07:03:20;;;;;;;0.80;0.70;;;;;;;-146.19;100.00;58918.88;5012192;28;20069;-54
2023/03/27 07:05:48;;;;;;;2.10;1.10;;;;;;;-146.19;100.00;58918.88;5013347;28;20570;-51
2023/03/27 07:08:19;;;;;;;0.98;0.80;;;;;;;-146.19;100.00;58918.88;5015458;28;20554;-51
2023/03/27 07:10:53;;;;;;;1.23;0.85;;;;;;;-146.19;100.00;58918.88;5013938;28;20085;-56
2023/03/27 07:13:24;;;;;;;1.98;1.05;;;;;;;-146.19;100.00;58918.88;5009222;28;20071;-52
2023/03/27 07:15:53;;;;;;;1.65;1.15;;;;;;;-146.19;100.00;58918.88;5012614;28;20085;-53
2023/03/27 07:18:22;;;;;;;2.58;1.30;;;;;;;-146.19;100.00;58918.88;5013867;28;20065;-56
2023/03/27 07:20:50;;;;;;;1.95;1.23;;;;;;;-146.19;100.00;58918.88;5009436;28;20478;-53
2023/03/27 07:23:20;;;;;;;2.30;1.25;;;;;;;-146.19;100.00;58918.88;5019079;28;20069;-53
2023/03/27 07:25:48;;;;;;;3.87;1.43;;;;;;;-146.19;100.00;58918.88;5006643;28;20084;-49
2023/03/27 07:28:17;;;;;;;1.33;1.00;;;;;;;-146.19;100.00;58918.88;5007899;28;21043;-52
2023/03/27 07:30:45;;;;;;;3.50;1.30;;;;;;;-146.19;100.00;58918.88;5006394;28;20065;-50
2023/03/27 07:33:14;;;;;;;1.90;1.52;;;;;;;-146.19;100.00;58918.88;5007505;28;20082;-54
2023/03/27 07:35:44;;;;;;;1.92;1.48;;;;;;;-146.19;100.00;58918.88;5010133;28;20074;-55
2023/03/27 07:38:13;;;;;;;3.65;2.22;;;;;;;-146.19;100.00;58918.88;5019026;28;20077;-52
2023/03/27 07:40:44;;;;;;;3.15;1.50;;;;;;;-146.19;100.00;58918.88;5010165;28;20089;-54
2023/03/27 07:43:13;;;;;;;2.83;1.95;;;;;;;-146.19;100.00;58918.88;5018241;28;20081;-49
2023/03/27 07:45:42;;;;;;;4.32;1.80;;;;;;;-146.19;100.00;58918.88;5008541;28;20598;-51
2023/03/27 07:48:13;;;;;;;7.68;2.20;;;;;;;-146.19;100.00;58918.88;5016845;28;23351;-53
2023/03/27 07:50:42;;;;;;;2.70;1.60;;;;;;;-146.19;100.00;58918.88;5015403;28;20530;-50
2023/03/27 07:53:10;;;;;;;2.25;1.52;;;;;;;-146.19;100.00;58918.88;5013582;28;20061;-55
2023/03/27 07:56:01;;;;;;;1.70;1.15;;;;;;;-146.19;100.00;58918.88;5015207;28;20082;-54
2023/03/27 07:58:29;;;;;;;1.70;1.35;;;;;;;-146.19;100.00;58918.88;5014301;28;20084;-52
2023/03/27 08:01:00;;;;;;;4.97;1.45;;;;;;;-146.19;100.00;58918.88;5015614;28;20085;-49
2023/03/27 08:03:30;;;;;;;3.20;1.50;;;;;;;-146.19;100.00;58918.88;5013148;28;20540;-48
2023/03/27 08:06:00;;;;;;;3.90;2.03;;;;;;;-146.19;100.00;58918.88;5011206;28;20074;-53
2023/03/27 08:08:28;;;;;;;3.63;2.13;;;;;;;-146.19;100.00;58918.88;5014539;28;20166;-55
2023/03/27 08:10:57;;;;;;;3.33;1.67;;;;;;;-146.19;100.00;58918.88;5016616;28;20466;-53
2023/03/27 08:13:27;;;;;;;4.70;1.77;;;;;;;-146.19;100.00;58918.88;5022130;28;20084;-53
2023/03/27 08:16:02;;;;;;;1.67;1.25;;;;;;;-146.19;100.00;58918.88;5011512;28;20561;-54
2023/03/27 08:18:31;;;;;;;7.35;2.03;;;;;;;-146.19;100.00;58918.88;5021509;28;20084;-51
2023/03/27 08:21:00;;;;;;;6.85;2.20;;;;;;;-146.19;100.00;58918.88;5011857;28;20080;-53
2023/03/27 08:23:29;;;;;;;5.45;2.05;;;;;;;-146.19;100.00;58918.88;5017757;28;20073;-53
2023/03/27 08:25:59;;;;;;;3.40;1.50;;;;;;;-146.19;100.00;58918.88;5011555;28;20088;-54
2023/03/27 08:28:30;;;;;;;3.42;1.67;;;;;;;-146.19;100.00;58918.88;5022082;28;20081;-53
2023/03/27 08:30:58;;;;;;;4.90;1.77;;;;;;;-146.19;100.00;58918.88;5018389;28;20103;-49
2023/03/27 08:33:30;;;;;;;5.57;2.10;;;;;;;-146.19;100.00;58918.88;5019477;28;20479;-49
2023/03/27 08:35:58;;;;;;;6.05;2.28;;;;;;;-146.19;100.00;58918.88;5013444;28;20074;-52
2023/03/27 08:38:31;;;;;;;4.78;2.10;;;;;;;-146.19;100.00;58918.88;5011621;28;20074;-54
2023/03/27 08:41:02;;;;;;;4.60;2.10;;;;;;;-146.19;100.00;58918.88;5020832;28;20100;-52
2023/03/27 08:43:34;;;;;;;;;;;;;;;-146.19;100.00;58918.88;5016020;28;20104;-52
2023/03/27 08:46:05;;;;;;;2.63;1.38;;;;;;;-146.19;100.00;58918.88;5016092;28;20373;-51
2023/03/27 08:48:36;;;;;;;4.60;1.80;;;;;;;-146.19;100.00;58918.88;5018648;28;20092;-52
2023/03/27 08:51:05;;;;;;;;;;;;;;;-146.19;100.00;58918.88;5019345;28;20089;-51
2023/03/27 08:53:40;;;;;;;4.40;1.33;;;;;;;-146.19;100.00;58918.88;5012175;28;19961;-50
2023/03/27 08:56:11;;;;;;;4.40;2.13;;;;;;;-146.19;100.00;58918.88;5014556;28;20073;-55
2023/03/27 08:58:41;;;;;;;1.58;1.00;;;;;;;-146.19;100.00;58918.88;5021159;28;20598;-46
2023/03/27 09:01:15;;;;;;;6.18;2.15;;;;;;;-146.19;100.00;58918.88;5013367;28;20085;-53
2023/03/27 09:03:47;;;;;;;7.68;1.75;;;;;;;-146.19;100.00;58918.88;5019777;28;20088;-50
2023/03/27 09:06:25;;;;;;;4.78;2.25;;;;;;;-146.19;100.00;58918.88;5014594;28;20077;-49
2023/03/27 09:09:01;;;;;;;4.10;1.50;;;;;;;-146.19;100.00;58918.88;5011070;28;20092;-51
2023/03/27 09:11:37;;;;;;;2.75;1.67;;;;;;;-146.19;100.00;58918.88;5008150;28;20085;-51
2023/03/27 09:14:15;;;;;;;5.35;2.38;;;;;;;-146.19;100.00;58918.88;5017894;28;20081;-53
2023/03/27 09:16:47;;;;;;;1.95;0.98;;;;;;;-146.19;100.00;58918.88;5015259;28;20049;-48
2023/03/27 09:19:22;;;;;;;2.92;1.50;;;;;;;-146.19;100.00;58918.88;5016722;28;20456;-49
2023/03/27 09:21:52;;;;;;;4.68;2.42;;;;;;;-146.19;100.00;58918.88;5019594;28;20089;-50
2023/03/27 09:24:27;;;;;;;7.80;2.38;;;;;;;-146.19;100.00;58918.88;5015224;28;20085;-48
2023/03/27 09:26:56;;;;;;;4.40;2.25;;;;;;;-146.19;100.00;58918.88;5016231;28;20081;-51
2023/03/27 09:29:39;;;;;;;3.00;2.35;;;;;;;-146.19;100.00;58918.88;5013793;28;20082;-50
2023/03/27 09:32:12;;;;;;;3.92;2.40;;;;;;;-146.19;100.00;58918.88;5018756;28;20074;-52
2023/03/27 09:34:41;;;;;;;4.93;1.52;;;;;;;-146.19;100.00;58918.88;5010051;28;20081;-50
2023/03/27 09:37:11;;;;;;;4.00;2.47;;;;;;;-146.19;100.00;58918.88;5017318;28;20085;-53
2023/03/27 09:39:42;;;;;;;3.70;2.10;;;;;;;-146.19;100.00;58918.88;5021413;28;20077;-52
2023/03/27 09:42:16;;;;;;;4.28;1.52;;;;;;;-146.19;100.00;58918.88;5015402;28;20464;-50
2023/03/27 09:44:49;;;;;;;4.45;1.98;;;;;;;-146.19;100.00;58918.88;5018674;28;20096;-55
2023/03/27 09:47:21;;;;;;;3.55;1.50;;;;;;;-146.19;100.00;58918.88;5014486;28;20085;-51
2023/03/27 09:49:53;;;;;;;4.18;2.30;;;;;;;-146.19;100.00;58918.88;5021853;28;20089;-51
2023/03/27 09:52:33;;;;;;;4.53;1.80;;;;;;;-146.19;100.00;58918.88;5014999;28;20089;-50
2023/03/27 09:55:02;;;;;;;3.72;1.98;;;;;;;-146.19;100.00;58918.88;5018065;28;20104;-50
2023/03/27 09:57:32;;;;;;;5.38;2.03;;;;;;;-146.19;100.00;58918.88;5010250;28;20088;-52
2023/03/27 10:00:11;;;;;;;5.97;2.20;;;;;;;-146.19;100.00;58918.88;5016079;28;20557;-52
2023/03/27 10:02:40;;;;;;;3.53;2.22;;;;;;;-146.19;100.00;58918.88;5048360;28;20069;-53
2023/03/27 10:05:16;;;;;;;3.70;2.08;;;;;;;-146.19;100.00;58918.88;5013410;28;20092;-51
2023/03/27 10:07:44;;;;;;;2.20;1.33;;;;;;;-146.19;100.00;58918.88;5013811;28;20074;-49
2023/03/27 10:10:16;;;;;;;6.82;2.25;;;;;;;-146.19;100.00;58918.88;5016142;28;20526;-49
2023/03/27 10:12:47;;;;;;;4.65;1.92;;;;;;;-146.19;100.00;58918.88;5012943;28;20539;-50
2023/03/27 10:15:32;;;;;;;6.95;1.98;;;;;;;-146.19;100.00;58918.88;5010799;28;20085;-56
2023/03/27 10:18:01;;;;;;;3.65;2.05;;;;;;;-146.19;100.00;58918.88;5015627;28;20466;-50
2023/03/27 10:20:30;;;;;;;5.18;1.45;;;;;;;-146.19;100.00;58918.88;5015275;28;20734;-49
2023/03/27 10:23:01;;;;;;;5.93;1.80;;;;;;;-146.19;100.00;58918.88;5013313;28;20108;-52
2023/03/27 10:25:32;;;;;;;6.18;1.83;;;;;;;-146.19;100.00;58918.88;5015018;28;20490;-50
2023/03/27 10:28:10;;;;;;;;;;;;;;;-146.19;100.00;58918.88;5009495;28;20061;-52
2023/03/27 10:30:40;;;;;;;3.83;2.00;;;;;;;-146.19;100.00;58918.88;5012572;28;19979;-47
2023/03/27 10:33:08;;;;;;;9.47;2.70;;;;;;;-146.19;100.00;58918.88;5011407;28;20108;-51
2023/03/27 10:35:38;;;;;;;4.93;2.38;;;;;;;-146.19;100.00;58918.88;5018555;28;20090;-54
2023/03/27 10:38:13;;;;;;;8.68;2.13;;;;;;;-146.19;100.00;58918.88;5015641;28;20069;-49
2023/03/27 10:40:44;;;;;;;3.92;1.88;;;;;;;-146.19;100.00;58918.88;5016243;28;20073;-55
2023/03/27 10:43:16;;;;;;;6.70;1.90;;;;;;;-146.19;100.00;58918.88;5015792;28;20065;-52
2023/03/27 10:45:49;;;;;;;4.88;1.70;;;;;;;-146.19;100.00;58918.88;5029868;28;20065;-47
2023/03/27 10:48:30;;;;;;;5.13;1.75;;;;;;;-146.19;100.00;58918.88;5020320;28;20081;-49
2023/03/27 10:51:02;;;;;;;3.38;2.03;;;;;;;-146.19;100.00;58918.88;5011954;28;20065;-52
2023/03/27 10:53:36;;;;;;;2.28;1.50;;;;;;;-146.19;100.00;58918.88;5019795;28;20155;-48
2023/03/27 10:56:10;;;;;;;2.50;1.35;;;;;;;-146.19;100.00;58918.88;5009251;28;20197;-46
2023/03/27 10:58:44;;;;;;;6.68;2.22;;;;;;;-146.19;100.00;58918.88;5009842;28;20506;-49
2023/03/27 11:01:18;;;;;;;3.95;2.17;;;;;;;-146.19;100.00;58918.88;5012267;28;20069;-48
2023/03/27 11:03:50;;;;;;;7.18;2.10;;;;;;;-146.19;100.00;58918.88;5014896;28;20515;-50
2023/03/27 11:06:19;;;;;;;4.68;2.20;;;;;;;-146.19;100.00;58918.88;5009918;28;20077;-46
2023/03/27 11:08:53;;;;;;;3.10;1.63;;;;;;;-146.19;100.00;58918.88;5013854;28;20081;-47
2023/03/27 11:11:24;;;;;;;5.43;1.80;;;;;;;-146.19;100.00;58918.88;5015267;28;20069;-51
2023/03/27 11:13:53;;;;;;;8.02;2.38;;;;;;;-146.19;100.00;58918.88;5011090;28;20074;-48
2023/03/27 11:16:27;;;;;;;3.13;1.52;;;;;;;-146.19;100.00;58918.88;5017517;28;20538;-49
2023/03/27 11:18:59;;;;;;;8.07;2.03;;;;;;;-146.19;100.00;58918.88;5007806;28;20094;-46
2023/03/27 11:21:33;;;;;;;5.30;1.80;;;;;;;-146.19;100.00;58918.88;5017250;28;20069;-52
2023/03/27 11:24:03;;;;;;;2.10;1.30;;;;;;;-146.19;100.00;58918.88;5013749;28;20085;-52
2023/03/27 11:26:35;;;;;;;5.18;1.30;;;;;;;-146.19;100.00;58918.88;5011035;28;20546;-50
2023/03/27 11:29:08;;;;;;;2.20;1.30;;;;;;;-146.19;100.00;58918.88;5019427;28;20480;-47
2023/03/27 11:31:44;;;;;;;4.53;1.85;;;;;;;-146.19;100.00;58918.88;5010019;28;20084;-48
2023/03/27 11:34:16;;;;;;;2.13;1.20;;;;;;;-146.19;100.00;58918.88;5017828;28;20537;-47
2023/03/27 11:36:59;;;;;;;15.43;1.98;;;;;;;-146.19;100.00;58918.88;5009900;28;20552;-50
2023/03/27 11:39:34;;;;;;;2.55;1.20;;;;;;;-146.19;100.00;58918.88;5017657;28;20096;-46